Terminal Aerodrome Forecast
Issued by NWS

Home | Current Version | Previous Version | Text Only | Print | Product List | Glossary Off
Versions: 1 2 3 4 5 6 7 8 9 10 11 12

000
FTUS45 KGGW 081723
TAFOLF
TAF
KOLF 081723Z 0818/0918 28012KT P6SM SCT140
     FM090100 29008KT P6SM SKC
     FM091000 25006KT P6SM SKC
     FM091500 26009KT P6SM SKC WS020/32035KT=

USA.gov is the U.S. government's official web portal to all federal, state and local government web resources and services.